createdAt,value
2022-08-21T00:04:32.756Z,19.70
2022-08-21T00:12:32.180Z,19.80
2022-08-21T00:15:00.511Z,19.80
2022-08-21T00:17:28.760Z,19.80
2022-08-21T00:19:58.308Z,19.80
2022-08-21T00:22:26.471Z,19.80
2022-08-21T00:24:54.595Z,19.70
2022-08-21T00:27:23.229Z,19.80
2022-08-21T00:29:51.409Z,19.80
2022-08-21T00:32:22.955Z,19.80
2022-08-21T00:34:51.143Z,19.80
2022-08-21T00:37:20.833Z,19.70
2022-08-21T00:39:49.673Z,19.80
2022-08-21T00:42:18.564Z,19.80
2022-08-21T00:44:47.104Z,19.70
2022-08-21T00:47:15.425Z,19.70
2022-08-21T00:49:43.631Z,19.80
2022-08-21T00:52:13.337Z,19.80
2022-08-21T00:54:45.844Z,19.80
2022-08-21T00:57:17.036Z,19.80
2022-08-21T00:59:46.497Z,19.80
2022-08-21T01:02:14.772Z,19.80
2022-08-21T01:04:42.952Z,19.80
2022-08-21T01:07:11.198Z,19.90
2022-08-21T01:09:39.946Z,19.80
2022-08-21T01:12:09.947Z,19.80
2022-08-21T01:14:38.124Z,19.90
2022-08-21T01:17:06.439Z,19.90
2022-08-21T01:19:34.947Z,19.90
2022-08-21T01:22:04.743Z,20.00
2022-08-21T01:24:33.540Z,20.00
2022-08-21T01:27:01.875Z,20.00
2022-08-21T01:29:34.264Z,20.00
2022-08-21T01:32:05.635Z,20.00
2022-08-21T01:34:33.996Z,20.00
2022-08-21T01:37:02.208Z,20.00
2022-08-21T01:39:31.961Z,20.00
2022-08-21T01:42:00.206Z,20.00
2022-08-21T01:44:28.474Z,20.00
2022-08-21T01:46:57.398Z,20.00
2022-08-21T01:49:25.563Z,20.00
2022-08-21T01:51:53.851Z,20.00
2022-08-21T01:54:22.103Z,20.00
2022-08-21T01:56:53.466Z,20.00
2022-08-21T01:59:21.677Z,20.00
2022-08-21T02:01:50.250Z,20.00
2022-08-21T02:04:18.524Z,20.00
2022-08-21T02:06:46.717Z,20.00
2022-08-21T02:09:15.530Z,20.00
2022-08-21T02:11:44.758Z,20.00
2022-08-21T02:14:15.451Z,20.00
2022-08-21T02:17:08.982Z,20.00
2022-08-21T02:19:40.553Z,20.10
2022-08-21T02:22:09.874Z,20.10
2022-08-21T02:24:38.479Z,20.10
2022-08-21T02:27:25.967Z,20.10
2022-08-21T02:29:56.951Z,20.10
2022-08-21T02:32:25.289Z,20.10
2022-08-21T02:34:53.517Z,20.10
2022-08-21T02:37:21.924Z,20.10
2022-08-21T02:39:50.830Z,20.10
2022-08-21T02:42:19.021Z,20.10
2022-08-21T02:44:47.194Z,20.10
2022-08-21T02:47:17.788Z,20.10
2022-08-21T02:49:46.107Z,20.10
2022-08-21T02:52:15.509Z,20.20
2022-08-21T02:54:43.646Z,20.20
2022-08-21T02:57:11.983Z,20.20
2022-08-21T02:59:40.337Z,20.10
2022-08-21T03:02:08.512Z,20.10
2022-08-21T03:04:38.045Z,20.10
2022-08-21T03:07:06.650Z,20.10
2022-08-21T03:09:39.466Z,20.10
2022-08-21T03:12:18.974Z,20.10
2022-08-21T03:14:47.342Z,20.10
2022-08-21T03:17:15.572Z,20.10
2022-08-21T03:19:45.097Z,20.10
2022-08-21T03:22:13.486Z,20.10
2022-08-21T03:24:42.965Z,20.10
2022-08-21T03:27:13.555Z,20.10
2022-08-21T03:29:42.365Z,20.10
2022-08-21T03:32:10.797Z,20.10
2022-08-21T03:34:39.082Z,20.10
2022-08-21T03:37:09.268Z,20.10
2022-08-21T03:39:37.608Z,20.10
2022-08-21T03:42:06.340Z,20.10
2022-08-21T03:44:35.589Z,20.10
2022-08-21T03:47:03.842Z,20.10
2022-08-21T03:49:32.027Z,20.10
2022-08-21T03:52:00.348Z,20.10
2022-08-21T03:54:29.952Z,20.10
2022-08-21T03:56:58.314Z,20.10
2022-08-21T03:59:26.579Z,20.10
2022-08-21T04:01:55.695Z,20.10
2022-08-21T04:04:23.945Z,20.10
2022-08-21T04:06:52.192Z,20.10
2022-08-21T04:09:20.531Z,20.10
2022-08-21T04:11:50.356Z,20.10
2022-08-21T04:14:18.587Z,20.20
2022-08-21T04:16:46.921Z,20.10
2022-08-21T04:19:15.278Z,20.20
2022-08-21T04:21:43.538Z,20.20
2022-08-21T04:24:12.195Z,20.20
2022-08-21T04:26:40.808Z,20.20
2022-08-21T04:29:10.411Z,20.20
2022-08-21T04:31:39.024Z,20.20
2022-08-21T04:34:07.562Z,20.20
2022-08-21T04:36:35.904Z,20.20
2022-08-21T04:39:04.210Z,20.20
2022-08-21T04:41:33.283Z,20.20
2022-08-21T04:44:01.799Z,20.20
2022-08-21T04:46:31.516Z,20.20
2022-08-21T04:48:59.677Z,20.20
2022-08-21T04:51:29.422Z,20.20
2022-08-21T04:54:00.466Z,20.20
2022-08-21T04:56:35.767Z,20.20
2022-08-21T04:59:05.810Z,20.20
2022-08-21T05:01:37.236Z,20.20
2022-08-21T05:04:06.623Z,20.30
2022-08-21T05:06:38.052Z,20.20
2022-08-21T05:09:06.749Z,20.30
2022-08-21T05:11:36.072Z,20.30
2022-08-21T05:14:04.218Z,20.30
2022-08-21T05:16:37.467Z,20.30
2022-08-21T05:19:07.690Z,20.30
2022-08-21T05:21:36.040Z,20.30
2022-08-21T05:24:04.669Z,20.30
2022-08-21T05:26:33.340Z,20.30
2022-08-21T05:29:12.340Z,20.30
2022-08-21T05:31:41.463Z,20.30
2022-08-21T05:34:11.117Z,20.30
2022-08-21T05:36:39.269Z,20.30
2022-08-21T05:39:07.539Z,20.30
2022-08-21T05:41:35.778Z,20.30
2022-08-21T05:44:04.299Z,20.30
2022-08-21T05:46:38.755Z,20.40
2022-08-21T05:49:07.004Z,20.40
2022-08-21T05:51:36.610Z,20.30
2022-08-21T05:54:04.910Z,20.30
2022-08-21T05:56:33.173Z,20.30
2022-08-21T05:59:01.904Z,20.30
2022-08-21T06:01:31.691Z,20.40
2022-08-21T06:04:00.026Z,20.30
2022-08-21T06:06:29.705Z,20.30
2022-08-21T06:08:59.235Z,20.40
2022-08-21T06:11:29.094Z,20.30
2022-08-21T06:13:57.498Z,20.30
2022-08-21T06:16:25.726Z,20.30
2022-08-21T06:18:53.989Z,20.30
2022-08-21T06:21:22.266Z,20.30
2022-08-21T06:23:50.478Z,20.30
2022-08-21T06:26:21.219Z,20.30
2022-08-21T06:28:49.471Z,20.30
2022-08-21T06:31:18.940Z,20.20
2022-08-21T06:33:47.119Z,20.30
2022-08-21T06:36:15.486Z,20.10
2022-08-21T06:38:50.982Z,20.00
2022-08-21T06:41:24.250Z,19.90
2022-08-21T06:43:54.553Z,19.90
2022-08-21T06:46:22.751Z,19.80
2022-08-21T06:48:51.282Z,19.70
2022-08-21T06:51:20.035Z,19.70
2022-08-21T06:53:48.209Z,19.70
2022-08-21T06:56:16.441Z,19.60
2022-08-21T06:58:46.004Z,19.60
2022-08-21T07:01:14.180Z,19.50
2022-08-21T07:03:43.469Z,19.50
2022-08-21T07:06:12.171Z,19.50
2022-08-21T07:08:40.558Z,19.50
2022-08-21T07:11:11.486Z,19.40
2022-08-21T07:13:39.995Z,19.40
2022-08-21T07:16:09.912Z,19.40
2022-08-21T07:18:38.127Z,19.40
2022-08-21T07:21:07.051Z,19.30
2022-08-21T07:23:37.416Z,19.40
2022-08-21T07:26:05.824Z,19.50
2022-08-21T07:28:34.144Z,19.50
2022-08-21T07:31:02.875Z,19.40
2022-08-21T07:33:33.794Z,19.40
2022-08-21T07:36:02.085Z,19.50
2022-08-21T07:38:30.488Z,19.40
2022-08-21T07:40:59.958Z,19.40
2022-08-21T07:43:28.239Z,19.50
2022-08-21T07:45:56.537Z,19.50
2022-08-21T07:48:24.747Z,19.50
2022-08-21T07:50:54.497Z,19.50
2022-08-21T07:53:22.869Z,19.50
2022-08-21T07:55:51.167Z,19.60
2022-08-21T07:58:19.361Z,19.60
2022-08-21T08:00:47.616Z,19.60
2022-08-21T08:03:15.852Z,19.70
2022-08-21T08:05:58.891Z,19.70
2022-08-21T08:08:27.273Z,19.80
2022-08-21T08:10:55.729Z,19.80
2022-08-21T08:13:24.063Z,19.90
2022-08-21T08:15:52.232Z,20.00
2022-08-21T08:18:20.552Z,20.10
2022-08-21T08:20:48.793Z,20.10
2022-08-21T08:23:18.332Z,20.20
2022-08-21T08:25:46.624Z,20.30
2022-08-21T08:28:17.086Z,20.30
2022-08-21T08:30:46.803Z,20.50
2022-08-21T08:33:15.096Z,20.50
2022-08-21T08:35:43.825Z,20.60
2022-08-21T08:38:12.054Z,20.60
2022-08-21T08:40:45.087Z,20.70
2022-08-21T08:43:14.681Z,20.80
2022-08-21T08:45:45.140Z,20.90
2022-08-21T08:48:15.122Z,21.00
2022-08-21T08:50:45.592Z,21.00
2022-08-21T08:53:15.331Z,21.00
2022-08-21T08:55:45.860Z,21.10
2022-08-21T08:58:16.510Z,21.10
2022-08-21T09:00:44.702Z,21.20
2022-08-21T09:03:12.926Z,21.10
2022-08-21T09:05:45.082Z,21.20
2022-08-21T09:08:41.078Z,21.20
2022-08-21T09:11:15.364Z,21.20
2022-08-21T09:13:50.939Z,21.20
2022-08-21T09:16:25.824Z,21.20
2022-08-21T09:18:57.953Z,21.20
2022-08-21T09:21:29.497Z,21.20
2022-08-21T09:24:00.646Z,21.30
2022-08-21T09:26:33.846Z,21.40
2022-08-21T09:29:03.302Z,21.40
2022-08-21T09:31:33.764Z,21.40
2022-08-21T09:34:02.495Z,21.40
2022-08-21T09:36:36.018Z,21.40
2022-08-21T09:39:04.227Z,21.50
2022-08-21T09:41:36.480Z,21.50
2022-08-21T09:44:05.266Z,21.50
2022-08-21T09:46:33.407Z,21.50
2022-08-21T09:49:02.657Z,21.50
2022-08-21T09:51:32.075Z,21.50
2022-08-21T09:54:03.033Z,21.50
2022-08-21T09:56:51.372Z,21.50
2022-08-21T09:59:22.578Z,21.50
2022-08-21T10:01:51.780Z,21.60
2022-08-21T10:04:22.816Z,21.60
2022-08-21T10:06:51.051Z,21.60
2022-08-21T10:09:21.848Z,21.50
2022-08-21T10:12:11.581Z,21.60
2022-08-21T10:14:46.930Z,21.50
2022-08-21T10:17:18.122Z,21.50
2022-08-21T10:19:50.522Z,21.50
2022-08-21T10:22:32.385Z,21.40
2022-08-21T10:25:04.403Z,21.30
2022-08-21T10:27:37.544Z,21.30
2022-08-21T10:30:08.025Z,21.30
2022-08-21T10:32:59.166Z,21.20
2022-08-21T10:35:31.615Z,21.20
2022-08-21T10:38:08.019Z,21.30
2022-08-21T10:40:39.503Z,21.20
2022-08-21T10:43:18.861Z,21.10
2022-08-21T10:45:54.040Z,21.10
2022-08-21T10:48:25.658Z,21.00
2022-08-21T10:50:56.523Z,21.10
2022-08-21T10:53:37.695Z,21.10
2022-08-21T10:56:11.539Z,21.10
2022-08-21T10:58:44.672Z,21.00
2022-08-21T11:01:14.603Z,20.90
2022-08-21T11:03:44.631Z,20.90
2022-08-21T11:06:15.438Z,21.00
2022-08-21T11:08:44.791Z,21.00
2022-08-21T11:11:22.221Z,21.00
2022-08-21T11:13:55.046Z,21.00
2022-08-21T11:16:26.225Z,21.00
2022-08-21T11:18:57.162Z,20.90
2022-08-21T11:21:33.283Z,21.00
2022-08-21T11:24:06.023Z,21.00
2022-08-21T11:26:37.240Z,20.90
2022-08-21T11:29:09.216Z,20.90
2022-08-21T11:31:44.433Z,20.90
2022-08-21T11:34:19.948Z,20.80
2022-08-21T11:36:54.056Z,20.70
2022-08-21T11:39:26.153Z,20.80
2022-08-21T11:41:56.918Z,20.90
2022-08-21T11:44:33.775Z,20.90
2022-08-21T11:47:05.304Z,20.90
2022-08-21T11:49:41.447Z,20.80
2022-08-21T11:52:12.872Z,20.80
2022-08-21T11:54:44.406Z,20.80
2022-08-21T11:57:17.198Z,20.80
2022-08-21T11:59:50.128Z,20.90
2022-08-21T12:02:20.012Z,20.80
2022-08-21T12:04:49.854Z,20.90
2022-08-21T12:07:19.636Z,20.90
2022-08-21T12:09:55.053Z,20.80
2022-08-21T12:12:27.649Z,20.70
2022-08-21T12:15:17.920Z,20.70
2022-08-21T12:17:55.035Z,20.70
2022-08-21T12:20:38.624Z,20.80
2022-08-21T12:23:19.073Z,20.70
2022-08-21T12:25:49.622Z,20.70
2022-08-21T12:28:23.360Z,20.70
2022-08-21T12:30:57.474Z,20.70
2022-08-21T12:33:28.057Z,20.70
2022-08-21T12:36:03.615Z,20.50
2022-08-21T12:38:34.468Z,20.50
2022-08-21T12:41:04.217Z,20.60
2022-08-21T12:43:33.763Z,20.50
2022-08-21T12:46:05.501Z,20.50
2022-08-21T12:48:35.567Z,20.40
2022-08-21T12:51:09.747Z,20.40
2022-08-21T12:53:42.863Z,20.50
2022-08-21T12:56:11.930Z,20.50
2022-08-21T12:58:42.423Z,20.50
2022-08-21T13:01:18.380Z,20.30
2022-08-21T13:03:46.812Z,20.10
2022-08-21T13:06:23.941Z,19.90
2022-08-21T13:09:01.153Z,19.70
2022-08-21T13:11:33.652Z,19.70
2022-08-21T13:14:04.605Z,19.50
2022-08-21T13:16:35.698Z,19.50
2022-08-21T13:19:06.482Z,19.40
2022-08-21T13:21:36.413Z,19.20
2022-08-21T13:24:40.803Z,19.20
2022-08-21T13:27:04.299Z,19.00
2022-08-21T13:29:38.514Z,18.80
2022-08-21T13:32:09.082Z,18.80
2022-08-21T13:34:37.983Z,18.80
2022-08-21T13:37:07.210Z,18.80
2022-08-21T13:39:35.400Z,18.70
2022-08-21T13:42:06.106Z,18.70
2022-08-21T13:44:36.482Z,18.60
2022-08-21T13:47:05.481Z,18.60
2022-08-21T13:49:40.943Z,18.40
2022-08-21T13:52:16.419Z,18.40
2022-08-21T13:54:45.766Z,18.20
2022-08-21T13:57:20.334Z,18.30
2022-08-21T13:59:48.549Z,18.40
2022-08-21T14:02:19.670Z,18.40
2022-08-21T14:04:53.628Z,18.40
2022-08-21T14:07:23.130Z,18.40
2022-08-21T14:09:51.412Z,18.40
2022-08-21T14:12:35.775Z,18.20
2022-08-21T14:15:06.040Z,18.20
2022-08-21T14:17:36.319Z,18.20
2022-08-21T14:20:08.836Z,18.20
2022-08-21T14:22:39.734Z,18.30
2022-08-21T14:25:09.497Z,18.30
2022-08-21T14:27:39.108Z,18.30
2022-08-21T14:30:15.182Z,18.20
2022-08-21T14:32:44.761Z,18.40
2022-08-21T14:35:18.585Z,18.30
2022-08-21T14:37:52.381Z,18.40
2022-08-21T14:40:20.903Z,18.30
2022-08-21T14:42:50.516Z,18.30
2022-08-21T14:45:21.218Z,18.20
2022-08-21T14:47:53.146Z,18.20
2022-08-21T14:50:22.735Z,18.30
2022-08-21T14:52:51.484Z,18.30
2022-08-21T14:55:20.280Z,18.20
2022-08-21T14:57:51.014Z,18.20
2022-08-21T15:00:27.158Z,18.10
2022-08-21T15:03:05.230Z,18.20
2022-08-21T15:05:34.839Z,18.30
2022-08-21T15:08:03.200Z,18.10
2022-08-21T15:10:32.245Z,18.00
2022-08-21T15:13:00.604Z,18.00
2022-08-21T15:15:38.970Z,18.10
2022-08-21T15:18:07.170Z,18.10
2022-08-21T15:20:37.246Z,18.10
2022-08-21T15:23:06.081Z,18.00
2022-08-21T15:25:34.231Z,17.90
2022-08-21T15:28:02.469Z,17.90
2022-08-21T15:30:31.255Z,17.90
2022-08-21T15:32:59.591Z,17.70
2022-08-21T15:35:27.984Z,17.80
2022-08-21T15:37:57.535Z,17.70
2022-08-21T15:40:25.862Z,17.80
2022-08-21T15:42:54.760Z,17.80
2022-08-21T15:45:23.244Z,17.70
2022-08-21T15:47:51.562Z,17.60
2022-08-21T15:50:19.813Z,17.80
2022-08-21T15:52:48.185Z,17.80
2022-08-21T15:55:17.710Z,17.70
2022-08-21T15:57:56.772Z,17.70
2022-08-21T16:00:26.765Z,17.80
2022-08-21T16:02:58.037Z,17.80
2022-08-21T16:05:26.473Z,17.80
2022-08-21T16:07:54.642Z,17.80
2022-08-21T16:10:28.532Z,17.80
2022-08-21T16:12:59.615Z,17.80
2022-08-21T16:15:28.272Z,17.70
2022-08-21T16:17:56.426Z,17.70
2022-08-21T16:20:27.131Z,17.70
2022-08-21T16:22:55.606Z,17.80
2022-08-21T16:25:25.414Z,17.70
2022-08-21T16:27:59.244Z,17.60
2022-08-21T16:30:27.798Z,17.60
2022-08-21T16:32:56.013Z,17.50
2022-08-21T16:35:25.238Z,17.40
2022-08-21T16:37:53.681Z,17.50
2022-08-21T16:40:23.230Z,17.50
2022-08-21T16:45:22.334Z,17.30
2022-08-21T16:47:51.424Z,17.30
2022-08-21T16:50:22.576Z,17.30
2022-08-21T16:52:50.939Z,17.30
2022-08-21T16:55:19.229Z,17.30
2022-08-21T16:57:47.427Z,17.30
2022-08-21T17:00:18.034Z,17.30
2022-08-21T17:02:46.989Z,17.30
2022-08-21T17:05:15.355Z,17.30
2022-08-21T17:07:43.620Z,17.20
2022-08-21T17:10:12.564Z,17.20
2022-08-21T17:12:41.076Z,17.30
2022-08-21T17:15:11.379Z,17.30
2022-08-21T17:17:40.890Z,17.20
2022-08-21T17:20:10.599Z,17.20
2022-08-21T17:22:38.810Z,17.20
2022-08-21T17:25:08.233Z,17.10
2022-08-21T17:27:36.424Z,17.10
2022-08-21T17:30:05.320Z,17.10
2022-08-21T17:32:33.558Z,17.10
2022-08-21T17:35:03.094Z,17.10
2022-08-21T17:37:31.866Z,17.10
2022-08-21T17:40:00.206Z,17.10
2022-08-21T17:42:30.140Z,17.10
2022-08-21T17:44:58.501Z,17.00
2022-08-21T17:47:26.963Z,17.10
2022-08-21T17:49:55.109Z,17.10
2022-08-21T17:52:24.765Z,17.20
2022-08-21T17:54:52.913Z,17.20
2022-08-21T17:57:22.943Z,17.10
2022-08-21T17:59:55.153Z,17.10
2022-08-21T18:02:26.004Z,17.20
2022-08-21T18:04:56.405Z,17.20
2022-08-21T18:07:32.528Z,17.20
2022-08-21T18:10:01.573Z,17.20
2022-08-21T18:12:29.803Z,17.20
2022-08-21T18:14:57.971Z,17.20
2022-08-21T18:17:28.351Z,17.10
2022-08-21T18:19:56.622Z,17.00
2022-08-21T18:22:26.191Z,17.10
2022-08-21T18:24:55.708Z,17.00
2022-08-21T18:27:29.068Z,17.00
2022-08-21T18:29:58.327Z,17.00
2022-08-21T18:32:31.350Z,16.90
2022-08-21T18:35:00.861Z,17.00
2022-08-21T18:37:30.670Z,17.10
2022-08-21T18:40:00.346Z,17.00
2022-08-21T18:42:29.378Z,17.00
2022-08-21T18:45:00.475Z,17.10
2022-08-21T18:47:33.659Z,17.00
2022-08-21T18:50:02.163Z,17.00
2022-08-21T18:52:32.031Z,17.00
2022-08-21T18:55:06.314Z,17.10
2022-08-21T18:57:46.518Z,17.00
2022-08-21T19:00:16.606Z,17.10
2022-08-21T19:02:44.891Z,17.00
2022-08-21T19:05:13.652Z,17.00
2022-08-21T19:07:43.210Z,17.00
2022-08-21T19:10:28.868Z,17.10
2022-08-21T19:13:01.093Z,17.00
2022-08-21T19:15:29.967Z,17.00
2022-08-21T19:17:58.705Z,17.00
2022-08-21T19:20:28.254Z,17.10
2022-08-21T19:22:58.373Z,17.10
2022-08-21T19:25:33.966Z,16.90
2022-08-21T19:28:03.171Z,17.00
2022-08-21T19:30:31.773Z,17.00
2022-08-21T19:33:00.239Z,17.00
2022-08-21T19:35:28.631Z,17.00
2022-08-21T19:37:58.170Z,17.00
2022-08-21T19:40:26.375Z,17.00
2022-08-21T19:42:54.656Z,17.00
2022-08-21T19:45:28.819Z,17.00
2022-08-21T19:47:58.712Z,17.00
2022-08-21T19:50:27.354Z,17.00
2022-08-21T19:52:55.718Z,17.00
2022-08-21T19:55:25.741Z,17.00
2022-08-21T19:57:54.742Z,17.10
2022-08-21T20:00:24.077Z,17.00
2022-08-21T20:02:52.521Z,17.10
2022-08-21T20:05:21.260Z,17.10
2022-08-21T20:07:50.123Z,17.10
2022-08-21T20:10:18.883Z,17.10
2022-08-21T20:12:48.952Z,17.10
2022-08-21T20:15:19.694Z,17.10
2022-08-21T20:17:48.208Z,17.00
2022-08-21T20:20:17.511Z,17.00
2022-08-21T20:22:46.121Z,17.00
2022-08-21T20:25:14.388Z,17.00
2022-08-21T20:27:42.731Z,17.10
2022-08-21T20:30:14.240Z,17.00
2022-08-21T20:32:43.429Z,17.00
2022-08-21T20:35:13.578Z,17.00
2022-08-21T20:37:42.258Z,17.00
2022-08-21T20:40:12.116Z,17.00
2022-08-21T20:42:40.954Z,17.00
2022-08-21T20:45:14.603Z,17.00
2022-08-21T20:47:46.924Z,17.00
2022-08-21T20:50:22.790Z,17.00
2022-08-21T20:52:52.718Z,17.00
2022-08-21T20:55:29.297Z,17.00
2022-08-21T20:58:01.491Z,17.00
2022-08-21T21:00:32.968Z,17.00
2022-08-21T21:03:04.243Z,17.00
2022-08-21T21:05:34.639Z,17.00
2022-08-21T21:08:05.565Z,17.00
2022-08-21T21:10:36.437Z,17.10
2022-08-21T21:13:08.851Z,17.10
2022-08-21T21:15:38.514Z,17.10
2022-08-21T21:18:13.058Z,17.10
2022-08-21T21:20:46.069Z,17.10
2022-08-21T21:23:22.816Z,17.10
2022-08-21T21:25:57.165Z,17.20
2022-08-21T21:28:28.774Z,17.20
2022-08-21T21:30:58.767Z,17.20
2022-08-21T21:33:32.106Z,17.20
2022-08-21T21:36:01.270Z,17.20
2022-08-21T21:38:32.958Z,17.20
2022-08-21T21:41:09.556Z,17.20
2022-08-21T21:43:52.870Z,17.20
2022-08-21T21:46:32.397Z,17.20
2022-08-21T21:49:15.982Z,17.20
2022-08-21T21:51:55.812Z,17.30
2022-08-21T21:54:41.807Z,17.20
2022-08-21T21:57:14.990Z,17.30
2022-08-21T21:59:51.318Z,17.30
2022-08-21T22:02:27.714Z,17.30
2022-08-21T22:04:58.420Z,17.30
2022-08-21T22:07:32.114Z,17.30
2022-08-21T22:10:05.666Z,17.30
2022-08-21T22:12:49.536Z,17.40
2022-08-21T22:15:26.206Z,17.40
2022-08-21T22:18:00.353Z,17.40
2022-08-21T22:20:33.112Z,17.40
2022-08-21T22:23:04.076Z,17.40
2022-08-21T22:25:35.771Z,17.40
2022-08-21T22:28:05.590Z,17.40
2022-08-21T22:30:45.490Z,17.40
2022-08-21T22:33:20.028Z,17.40
2022-08-21T22:35:51.602Z,17.40
2022-08-21T22:38:31.202Z,17.40
2022-08-21T22:41:13.996Z,17.50
2022-08-21T22:43:52.528Z,17.50
2022-08-21T22:46:28.058Z,17.50
2022-08-21T22:49:01.299Z,17.50
2022-08-21T22:51:32.477Z,17.50
2022-08-21T22:54:01.238Z,17.60
2022-08-21T22:56:31.631Z,17.60
2022-08-21T22:59:01.881Z,17.60
2022-08-21T23:01:37.180Z,17.60
2022-08-21T23:04:17.231Z,17.60
2022-08-21T23:06:48.939Z,17.60
2022-08-21T23:09:23.477Z,17.70
2022-08-21T23:11:52.521Z,17.70
2022-08-21T23:14:20.643Z,17.70
2022-08-21T23:16:53.632Z,17.70
2022-08-21T23:19:34.457Z,17.70
2022-08-21T23:22:14.896Z,17.70
2022-08-21T23:24:52.166Z,17.70
2022-08-21T23:27:32.580Z,17.70
2022-08-21T23:30:18.783Z,17.70
2022-08-21T23:33:07.399Z,17.70
2022-08-21T23:36:04.473Z,17.70
2022-08-21T23:38:46.609Z,17.70
2022-08-21T23:41:34.355Z,17.70
2022-08-21T23:44:09.026Z,17.70
2022-08-21T23:46:52.758Z,17.70
2022-08-21T23:49:30.701Z,17.60
2022-08-21T23:52:07.521Z,17.60
2022-08-21T23:54:42.316Z,17.60
2022-08-21T23:57:18.886Z,17.60
2022-08-21T23:59:58.925Z,17.60
